createdAt,value
2022-09-27T00:00:50.305Z,72
2022-09-27T00:02:50.901Z,72
2022-09-27T00:04:50.161Z,72
2022-09-27T00:06:50.438Z,72
2022-09-27T00:08:50.414Z,72
2022-09-27T00:10:50.510Z,72
2022-09-27T00:12:50.441Z,72
2022-09-27T00:14:50.394Z,72
2022-09-27T00:16:50.488Z,73
2022-09-27T00:18:50.425Z,73
2022-09-27T00:20:50.252Z,73
2022-09-27T00:22:50.221Z,73
2022-09-27T00:24:50.475Z,73
2022-09-27T00:26:50.986Z,73
2022-09-27T00:28:50.983Z,73
2022-09-27T00:30:50.503Z,73
2022-09-27T00:32:50.471Z,73
2022-09-27T00:34:51.018Z,74
2022-09-27T00:36:50.406Z,74
2022-09-27T00:38:50.452Z,74
2022-09-27T00:40:51.094Z,74
2022-09-27T00:42:51.029Z,74
2022-09-27T00:44:50.109Z,74
2022-09-27T00:46:50.466Z,74
2022-09-27T00:48:50.364Z,74
2022-09-27T00:50:50.115Z,74
2022-09-27T00:52:50.879Z,74
2022-09-27T00:54:50.877Z,75
2022-09-27T00:56:50.100Z,75
2022-09-27T00:58:51.000Z,74
2022-09-27T01:00:50.956Z,76
2022-09-27T01:02:51.380Z,75
2022-09-27T01:04:50.962Z,76
2022-09-27T01:06:50.087Z,76
2022-09-27T01:08:50.228Z,77
2022-09-27T01:10:50.164Z,77
2022-09-27T01:12:50.183Z,77
2022-09-27T01:14:50.139Z,77
2022-09-27T01:16:50.208Z,77
2022-09-27T01:18:50.261Z,77
2022-09-27T01:20:50.941Z,76
2022-09-27T01:22:50.852Z,76
2022-09-27T01:24:50.714Z,76
2022-09-27T01:26:50.833Z,76
2022-09-27T01:28:50.776Z,76
2022-09-27T01:30:51.023Z,76
2022-09-27T01:32:50.037Z,76
2022-09-27T01:34:50.238Z,76
2022-09-27T01:36:50.538Z,76
2022-09-27T01:38:50.476Z,76
2022-09-27T01:40:50.794Z,76
2022-09-27T01:42:50.744Z,76
2022-09-27T01:44:50.699Z,76
2022-09-27T01:46:50.902Z,76
2022-09-27T01:48:50.698Z,76
2022-09-27T01:50:50.549Z,76
2022-09-27T01:52:50.595Z,77
2022-09-27T01:54:50.432Z,77
2022-09-27T01:56:50.502Z,77
2022-09-27T01:58:50.445Z,76
2022-09-27T02:00:50.235Z,77
2022-09-27T02:02:50.551Z,77
2022-09-27T02:04:50.829Z,77
2022-09-27T02:06:50.993Z,77
2022-09-27T02:08:50.131Z,78
2022-09-27T02:10:50.108Z,78
2022-09-27T02:12:50.906Z,78
2022-09-27T02:14:50.723Z,78
2022-09-27T02:16:50.119Z,78
2022-09-27T02:18:50.849Z,78
2022-09-27T02:20:50.819Z,78
2022-09-27T02:22:50.489Z,78
2022-09-27T02:24:50.376Z,78
2022-09-27T02:26:50.587Z,78
2022-09-27T02:28:50.340Z,78
2022-09-27T02:30:50.736Z,78
2022-09-27T02:32:50.661Z,78
2022-09-27T02:34:50.966Z,78
2022-09-27T02:36:50.857Z,78
2022-09-27T02:38:50.817Z,78
2022-09-27T02:40:51.443Z,78
2022-09-27T02:42:50.545Z,78
2022-09-27T02:44:50.381Z,78
2022-09-27T02:46:50.517Z,78
2022-09-27T02:48:50.333Z,79
2022-09-27T02:50:50.405Z,79
2022-09-27T02:52:50.200Z,79
2022-09-27T02:54:50.256Z,79
2022-09-27T02:56:50.476Z,80
2022-09-27T02:58:50.502Z,79
2022-09-27T03:00:50.457Z,79
2022-09-27T03:02:50.686Z,79
2022-09-27T03:04:50.858Z,79
2022-09-27T03:06:50.253Z,79
2022-09-27T03:08:50.263Z,79
2022-09-27T03:10:50.283Z,79
2022-09-27T03:12:50.230Z,79
2022-09-27T03:14:50.364Z,79
2022-09-27T03:16:51.109Z,79
2022-09-27T03:18:50.845Z,79
2022-09-27T03:20:50.834Z,79
2022-09-27T03:22:50.730Z,80
2022-09-27T03:24:50.764Z,80
2022-09-27T03:26:50.137Z,80
2022-09-27T03:28:50.916Z,80
2022-09-27T03:30:51.373Z,80
2022-09-27T03:32:50.164Z,80
2022-09-27T03:34:50.469Z,80
2022-09-27T03:36:50.597Z,80
2022-09-27T03:38:50.312Z,80
2022-09-27T03:40:50.813Z,80
2022-09-27T03:42:50.875Z,80
2022-09-27T03:44:50.910Z,80
2022-09-27T03:46:50.142Z,80
2022-09-27T03:48:50.998Z,80
2022-09-27T03:50:50.955Z,80
2022-09-27T03:52:50.927Z,80
2022-09-27T03:54:50.866Z,80
2022-09-27T03:56:50.966Z,80
2022-09-27T03:58:50.790Z,80
2022-09-27T04:00:50.794Z,80
2022-09-27T04:02:50.925Z,80
2022-09-27T04:04:50.517Z,80
2022-09-27T04:06:50.764Z,80
2022-09-27T04:08:50.619Z,80
2022-09-27T04:10:50.473Z,80
2022-09-27T04:12:50.227Z,81
2022-09-27T04:14:50.120Z,80
2022-09-27T04:16:50.631Z,80
2022-09-27T04:18:50.684Z,81
2022-09-27T04:20:50.636Z,81
2022-09-27T04:22:50.330Z,81
2022-09-27T04:24:50.400Z,81
2022-09-27T04:26:50.537Z,81
2022-09-27T04:28:55.389Z,81
2022-09-27T04:30:50.610Z,81
2022-09-27T04:32:50.569Z,81
2022-09-27T04:34:51.041Z,81
2022-09-27T04:36:51.069Z,81
2022-09-27T04:38:50.078Z,81
2022-09-27T04:40:50.302Z,82
2022-09-27T04:42:50.176Z,81
2022-09-27T04:44:50.090Z,81
2022-09-27T04:46:50.214Z,81
2022-09-27T04:48:50.985Z,81
2022-09-27T04:50:50.848Z,81
2022-09-27T04:52:50.695Z,81
2022-09-27T04:54:50.641Z,81
2022-09-27T04:56:50.841Z,81
2022-09-27T04:58:50.722Z,81
2022-09-27T05:00:50.760Z,82
2022-09-27T05:02:50.826Z,82
2022-09-27T05:04:50.474Z,82
2022-09-27T05:06:57.813Z,82
2022-09-27T05:08:50.768Z,81
2022-09-27T05:10:50.732Z,82
2022-09-27T05:12:50.569Z,82
2022-09-27T05:14:50.662Z,82
2022-09-27T05:16:51.016Z,82
2022-09-27T05:18:50.883Z,82
2022-09-27T05:20:50.857Z,82
2022-09-27T05:22:50.929Z,82
2022-09-27T05:24:50.804Z,82
2022-09-27T05:26:50.916Z,82
2022-09-27T05:28:50.723Z,82
2022-09-27T05:30:51.127Z,82
2022-09-27T05:32:50.108Z,82
2022-09-27T05:34:50.387Z,82
2022-09-27T05:36:50.649Z,82
2022-09-27T05:38:50.533Z,82
2022-09-27T05:40:51.082Z,82
2022-09-27T05:42:51.004Z,82
2022-09-27T05:44:50.991Z,82
2022-09-27T05:46:50.475Z,82
2022-09-27T05:48:50.501Z,82
2022-09-27T05:50:50.686Z,82
2022-09-27T05:52:50.599Z,82
2022-09-27T05:54:50.642Z,82
2022-09-27T05:56:50.810Z,82
2022-09-27T05:58:50.593Z,82
2022-09-27T06:00:50.480Z,82
2022-09-27T06:02:50.508Z,82
2022-09-27T06:04:50.780Z,82
2022-09-27T06:06:50.886Z,82
2022-09-27T06:08:51.095Z,83
2022-09-27T06:10:50.188Z,83
2022-09-27T06:12:50.116Z,83
2022-09-27T06:14:50.216Z,83
2022-09-27T06:16:50.419Z,83
2022-09-27T06:18:50.316Z,83
2022-09-27T06:20:50.073Z,83
2022-09-27T06:22:50.833Z,83
2022-09-27T06:24:50.925Z,83
2022-09-27T06:26:50.052Z,83
2022-09-27T06:28:50.951Z,83
2022-09-27T06:30:51.587Z,83
2022-09-27T06:32:50.791Z,83
2022-09-27T06:34:50.470Z,83
2022-09-27T06:36:52.186Z,83
2022-09-27T06:38:50.226Z,83
2022-09-27T06:40:50.957Z,83
2022-09-27T06:42:50.233Z,83
2022-09-27T06:44:51.194Z,82
2022-09-27T06:46:50.802Z,82
2022-09-27T06:48:50.761Z,82
2022-09-27T06:50:50.787Z,82
2022-09-27T06:52:50.954Z,82
2022-09-27T06:54:50.961Z,81
2022-09-27T06:56:50.123Z,81
2022-09-27T06:58:50.047Z,81
2022-09-27T07:00:51.386Z,81
2022-09-27T07:02:50.506Z,81
2022-09-27T07:04:51.050Z,81
2022-09-27T07:06:50.748Z,81
2022-09-27T07:08:50.091Z,81
2022-09-27T07:10:50.392Z,81
2022-09-27T07:12:50.199Z,81
2022-09-27T07:14:50.952Z,80
2022-09-27T07:16:50.612Z,80
2022-09-27T07:18:50.551Z,80
2022-09-27T07:20:50.516Z,80
2022-09-27T07:22:50.520Z,80
2022-09-27T07:24:50.405Z,80
2022-09-27T07:26:50.516Z,80
2022-09-27T07:28:50.338Z,80
2022-09-27T07:30:50.776Z,80
2022-09-27T07:32:50.738Z,80
2022-09-27T07:34:50.330Z,79
2022-09-27T07:36:50.638Z,79
2022-09-27T07:38:50.599Z,79
2022-09-27T07:40:51.265Z,79
2022-09-27T07:42:50.353Z,79
2022-09-27T07:44:50.411Z,79
2022-09-27T07:46:50.686Z,78
2022-09-27T07:48:50.680Z,78
2022-09-27T07:50:50.715Z,78
2022-09-27T07:52:50.653Z,78
2022-09-27T07:54:50.411Z,79
2022-09-27T07:56:50.487Z,79
2022-09-27T07:58:50.523Z,79
2022-09-27T08:00:50.816Z,78
2022-09-27T08:02:50.610Z,78
2022-09-27T08:04:50.315Z,78
2022-09-27T08:06:50.542Z,78
2022-09-27T08:08:50.544Z,77
2022-09-27T08:10:50.460Z,77
2022-09-27T08:12:50.392Z,77
2022-09-27T08:14:50.334Z,76
2022-09-27T08:16:50.706Z,76
2022-09-27T08:18:50.626Z,76
2022-09-27T08:20:50.363Z,76
2022-09-27T08:22:50.394Z,76
2022-09-27T08:24:50.407Z,76
2022-09-27T08:26:50.738Z,76
2022-09-27T08:28:50.626Z,76
2022-09-27T08:30:50.584Z,76
2022-09-27T08:32:50.576Z,76
2022-09-27T08:34:50.223Z,76
2022-09-27T08:36:50.342Z,75
2022-09-27T08:38:50.268Z,75
2022-09-27T08:40:50.528Z,76
2022-09-27T08:42:50.589Z,76
2022-09-27T08:44:50.476Z,76
2022-09-27T08:46:50.796Z,75
2022-09-27T08:48:50.730Z,75
2022-09-27T08:50:50.938Z,75
2022-09-27T08:52:50.833Z,75
2022-09-27T08:54:50.737Z,74
2022-09-27T08:56:50.836Z,75
2022-09-27T08:58:50.840Z,74
2022-09-27T09:00:50.864Z,75
2022-09-27T09:02:50.702Z,75
2022-09-27T09:04:50.816Z,75
2022-09-27T09:06:50.082Z,75
2022-09-27T09:08:51.728Z,75
2022-09-27T09:10:50.677Z,75
2022-09-27T09:12:50.502Z,75
2022-09-27T09:14:50.213Z,76
2022-09-27T09:16:50.611Z,75
2022-09-27T09:18:50.537Z,75
2022-09-27T09:20:50.490Z,74
2022-09-27T09:22:50.361Z,74
2022-09-27T09:24:50.570Z,74
2022-09-27T09:26:50.598Z,73
2022-09-27T09:28:50.550Z,73
2022-09-27T09:30:50.385Z,73
2022-09-27T09:32:50.518Z,72
2022-09-27T09:34:50.097Z,72
2022-09-27T09:36:50.580Z,72
2022-09-27T09:38:50.844Z,72
2022-09-27T09:40:51.063Z,71
2022-09-27T09:42:50.116Z,71
2022-09-27T09:44:50.231Z,71
2022-09-27T09:46:50.718Z,71
2022-09-27T09:48:50.686Z,71
2022-09-27T09:50:50.990Z,71
2022-09-27T09:52:50.947Z,70
2022-09-27T09:54:51.011Z,70
2022-09-27T09:56:50.103Z,70
2022-09-27T09:58:50.048Z,69
2022-09-27T10:00:51.156Z,69
2022-09-27T10:02:50.927Z,70
2022-09-27T10:04:50.266Z,69
2022-09-27T10:06:50.235Z,70
2022-09-27T10:08:50.287Z,70
2022-09-27T10:10:50.121Z,70
2022-09-27T10:12:50.043Z,70
2022-09-27T10:14:50.941Z,70
2022-09-27T10:16:50.393Z,70
2022-09-27T10:18:50.818Z,70
2022-09-27T10:20:50.661Z,70
2022-09-27T10:22:50.643Z,70
2022-09-27T10:24:50.327Z,70
2022-09-27T10:26:50.605Z,70
2022-09-27T10:28:50.307Z,70
2022-09-27T10:30:50.311Z,70
2022-09-27T10:32:51.000Z,70
2022-09-27T10:34:50.547Z,69
2022-09-27T10:36:50.507Z,69
2022-09-27T10:38:50.907Z,70
2022-09-27T10:40:51.100Z,70
2022-09-27T10:42:50.573Z,70
2022-09-27T10:44:50.434Z,70
2022-09-27T10:46:50.823Z,70
2022-09-27T10:48:50.941Z,70
2022-09-27T10:50:59.982Z,70
2022-09-27T10:52:51.014Z,71
2022-09-27T10:54:50.975Z,71
2022-09-27T10:56:50.238Z,71
2022-09-27T10:58:50.601Z,71
2022-09-27T11:00:50.422Z,71
2022-09-27T11:02:50.129Z,71
2022-09-27T11:04:50.744Z,71
2022-09-27T11:06:50.790Z,71
2022-09-27T11:08:50.785Z,71
2022-09-27T11:10:50.596Z,72
2022-09-27T11:12:50.572Z,72
2022-09-27T11:14:50.368Z,71
2022-09-27T11:16:50.702Z,71
2022-09-27T11:18:50.665Z,71
2022-09-27T11:20:50.467Z,70
2022-09-27T11:22:51.017Z,70
2022-09-27T11:24:50.797Z,69
2022-09-27T11:26:50.936Z,68
2022-09-27T11:28:50.810Z,67
2022-09-27T11:30:50.670Z,67
2022-09-27T11:32:50.477Z,67
2022-09-27T11:34:50.036Z,67
2022-09-27T11:36:55.241Z,68
2022-09-27T11:39:01.854Z,68
2022-09-27T11:40:50.687Z,69
2022-09-27T11:42:50.594Z,69
2022-09-27T11:45:45.706Z,70
2022-09-27T11:46:50.766Z,70
2022-09-27T11:48:50.587Z,70
2022-09-27T11:50:50.443Z,70
2022-09-27T11:52:50.390Z,70
2022-09-27T11:54:50.398Z,70
2022-09-27T11:56:50.591Z,69
2022-09-27T11:58:50.493Z,69
2022-09-27T12:00:50.382Z,69
2022-09-27T12:02:50.576Z,69
2022-09-27T12:04:50.096Z,70
2022-09-27T12:06:50.706Z,69
2022-09-27T12:08:50.518Z,69
2022-09-27T12:10:50.452Z,68
2022-09-27T12:12:50.244Z,68
2022-09-27T12:14:50.105Z,68
2022-09-27T12:16:50.163Z,67
2022-09-27T12:18:52.250Z,67
2022-09-27T12:20:50.125Z,66
2022-09-27T12:23:01.120Z,66
2022-09-27T12:24:51.052Z,66
2022-09-27T12:26:50.240Z,67
2022-09-27T12:28:50.809Z,67
2022-09-27T12:31:29.925Z,66
2022-09-27T12:32:50.374Z,66
2022-09-27T12:34:50.203Z,66
2022-09-27T12:36:50.297Z,66
2022-09-27T12:38:50.257Z,66
2022-09-27T12:40:50.468Z,66
2022-09-27T12:42:50.706Z,66
2022-09-27T12:44:52.369Z,66
2022-09-27T12:46:51.294Z,66
2022-09-27T12:48:50.164Z,66
2022-09-27T12:50:50.172Z,66
2022-09-27T12:52:50.134Z,67
2022-09-27T12:54:50.913Z,68
2022-09-27T12:56:50.282Z,68
2022-09-27T12:58:50.169Z,68
2022-09-27T13:00:50.490Z,68
2022-09-27T13:03:20.369Z,68
2022-09-27T13:04:50.469Z,69
2022-09-27T13:06:50.582Z,70
2022-09-27T13:08:54.787Z,71
2022-09-27T13:10:50.741Z,71
2022-09-27T13:12:50.738Z,72
2022-09-27T13:14:50.597Z,72
2022-09-27T13:16:50.794Z,72
2022-09-27T13:18:50.685Z,72
2022-09-27T13:20:50.669Z,73
2022-09-27T13:22:50.613Z,73
2022-09-27T13:24:50.447Z,73
2022-09-27T13:26:50.758Z,73
2022-09-27T13:28:50.655Z,73
2022-09-27T13:30:50.661Z,73
2022-09-27T13:32:50.489Z,74
2022-09-27T13:34:50.855Z,74
2022-09-27T13:36:50.201Z,74
2022-09-27T13:38:50.292Z,73
2022-09-27T13:40:50.851Z,73
2022-09-27T13:42:50.101Z,73
2022-09-27T13:44:51.046Z,73
2022-09-27T13:46:54.460Z,73
2022-09-27T13:48:50.440Z,73
2022-09-27T13:50:50.420Z,73
2022-09-27T13:52:50.210Z,73
2022-09-27T13:54:50.172Z,73
2022-09-27T13:56:50.467Z,73
2022-09-27T13:58:50.262Z,73
2022-09-27T14:00:51.389Z,73
2022-09-27T14:02:50.128Z,72
2022-09-27T14:04:50.484Z,72
2022-09-27T14:06:50.658Z,72
2022-09-27T14:08:50.438Z,72
2022-09-27T14:10:50.755Z,72
2022-09-27T14:12:50.450Z,72
2022-09-27T14:14:50.442Z,71
2022-09-27T14:16:50.471Z,71
2022-09-27T14:18:50.664Z,71
2022-09-27T14:20:50.409Z,71
2022-09-27T14:22:50.453Z,71
2022-09-27T14:24:50.534Z,71
2022-09-27T14:26:50.878Z,71
2022-09-27T14:28:50.677Z,71
2022-09-27T14:30:51.046Z,71
2022-09-27T14:32:50.865Z,71
2022-09-27T14:34:50.205Z,71
2022-09-27T14:36:50.309Z,71
2022-09-27T14:38:50.220Z,71
2022-09-27T14:40:50.529Z,71
2022-09-27T14:42:50.494Z,71
2022-09-27T14:44:50.253Z,72
2022-09-27T14:46:50.934Z,72
2022-09-27T14:48:50.080Z,72
2022-09-27T14:50:50.923Z,72
2022-09-27T14:52:50.841Z,72
2022-09-27T14:54:50.739Z,72
2022-09-27T14:56:54.146Z,71
2022-09-27T14:58:50.209Z,71
2022-09-27T15:00:50.076Z,71
2022-09-27T15:02:50.370Z,71
2022-09-27T15:04:50.965Z,71
2022-09-27T15:06:50.931Z,71
2022-09-27T15:08:50.220Z,71
2022-09-27T15:10:50.975Z,71
2022-09-27T15:12:50.964Z,70
2022-09-27T15:14:55.122Z,70
2022-09-27T15:16:50.363Z,71
2022-09-27T15:18:50.225Z,71
2022-09-27T15:20:50.092Z,71
2022-09-27T15:22:51.105Z,71
2022-09-27T15:24:50.099Z,71
2022-09-27T15:26:50.269Z,71
2022-09-27T15:28:50.132Z,70
2022-09-27T15:30:51.378Z,71
2022-09-27T15:32:50.318Z,71
2022-09-27T15:34:50.683Z,71
2022-09-27T15:36:50.700Z,71
2022-09-27T15:38:50.769Z,71
2022-09-27T15:40:51.127Z,70
2022-09-27T15:42:50.191Z,70
2022-09-27T15:44:51.048Z,71
2022-09-27T15:46:50.764Z,71
2022-09-27T15:48:50.745Z,71
2022-09-27T15:50:50.627Z,71
2022-09-27T15:52:50.653Z,71
2022-09-27T15:54:50.742Z,70
2022-09-27T15:56:56.031Z,70
2022-09-27T15:58:50.894Z,69
2022-09-27T16:00:51.041Z,69
2022-09-27T16:02:50.885Z,69
2022-09-27T16:04:50.258Z,69
2022-09-27T16:06:50.402Z,69
2022-09-27T16:08:50.607Z,70
2022-09-27T16:10:50.553Z,70
2022-09-27T16:12:50.566Z,69
2022-09-27T16:14:50.492Z,69
2022-09-27T16:16:50.386Z,69
2022-09-27T16:18:50.262Z,69
2022-09-27T16:20:50.292Z,69
2022-09-27T16:22:50.223Z,69
2022-09-27T16:24:51.017Z,69
2022-09-27T16:26:50.084Z,69
2022-09-27T16:28:50.164Z,69
2022-09-27T16:30:51.689Z,69
2022-09-27T16:32:50.553Z,69
2022-09-27T16:34:51.363Z,69
2022-09-27T16:36:50.711Z,69
2022-09-27T16:38:50.589Z,69
2022-09-27T16:40:50.833Z,69
2022-09-27T16:42:50.834Z,69
2022-09-27T16:44:50.686Z,69
2022-09-27T16:46:51.504Z,69
2022-09-27T16:48:50.345Z,69
2022-09-27T16:50:50.164Z,69
2022-09-27T16:52:50.317Z,69
2022-09-27T16:54:50.106Z,70
2022-09-27T16:56:55.845Z,70
2022-09-27T16:58:50.476Z,70
2022-09-27T17:00:50.896Z,70
2022-09-27T17:02:53.608Z,70
2022-09-27T17:04:50.920Z,70
2022-09-27T17:06:50.114Z,70
2022-09-27T17:08:50.882Z,70
2022-09-27T17:10:51.017Z,70
2022-09-27T17:12:50.881Z,70
2022-09-27T17:14:50.770Z,70
2022-09-27T17:16:50.086Z,71
2022-09-27T17:18:51.021Z,71
2022-09-27T17:20:50.977Z,71
2022-09-27T17:22:50.999Z,71
2022-09-27T17:24:50.575Z,71
2022-09-27T17:26:50.755Z,71
2022-09-27T17:28:50.480Z,71
2022-09-27T17:30:50.326Z,71
2022-09-27T17:32:50.247Z,71
2022-09-27T17:34:50.337Z,71
2022-09-27T17:36:50.665Z,72
2022-09-27T17:38:50.297Z,72
2022-09-27T17:40:50.485Z,72
2022-09-27T17:42:50.371Z,72
2022-09-27T17:44:50.341Z,72
2022-09-27T17:46:51.060Z,73
2022-09-27T17:48:51.172Z,73
2022-09-27T17:50:50.028Z,73
2022-09-27T17:52:50.778Z,73
2022-09-27T17:54:50.775Z,74
2022-09-27T17:56:50.867Z,73
2022-09-27T17:58:50.695Z,74
2022-09-27T18:00:50.388Z,74
2022-09-27T18:02:50.848Z,75
2022-09-27T18:04:50.045Z,75
2022-09-27T18:06:50.281Z,75
2022-09-27T18:08:50.298Z,75
2022-09-27T18:10:50.098Z,75
2022-09-27T18:12:50.848Z,75
2022-09-27T18:14:50.835Z,75
2022-09-27T18:16:51.017Z,75
2022-09-27T18:18:50.907Z,75
2022-09-27T18:20:50.687Z,75
2022-09-27T18:22:50.322Z,75
2022-09-27T18:24:50.341Z,75
2022-09-27T18:26:50.337Z,75
2022-09-27T18:28:50.492Z,75
2022-09-27T18:30:50.393Z,76
2022-09-27T18:32:50.066Z,76
2022-09-27T18:34:50.207Z,76
2022-09-27T18:36:50.285Z,76
2022-09-27T18:38:50.118Z,76
2022-09-27T18:40:57.927Z,77
2022-09-27T18:42:50.676Z,77
2022-09-27T18:44:50.526Z,76
2022-09-27T18:46:51.166Z,76
2022-09-27T18:48:50.141Z,77
2022-09-27T18:50:50.830Z,76
2022-09-27T18:52:50.616Z,76
2022-09-27T18:54:50.570Z,76
2022-09-27T18:56:50.749Z,76
2022-09-27T18:58:50.735Z,76
2022-09-27T19:00:50.819Z,77
2022-09-27T19:02:50.604Z,77
2022-09-27T19:04:50.943Z,77
2022-09-27T19:06:50.101Z,77
2022-09-27T19:08:50.077Z,77
2022-09-27T19:10:51.020Z,77
2022-09-27T19:12:50.857Z,77
2022-09-27T19:14:50.861Z,77
2022-09-27T19:16:50.102Z,77
2022-09-27T19:18:50.181Z,77
2022-09-27T19:20:50.978Z,77
2022-09-27T19:22:50.727Z,77
2022-09-27T19:24:50.815Z,77
2022-09-27T19:26:50.862Z,77
2022-09-27T19:28:50.596Z,78
2022-09-27T19:30:50.520Z,77
2022-09-27T19:32:50.417Z,77
2022-09-27T19:34:50.878Z,78
2022-09-27T19:36:51.059Z,78
2022-09-27T19:38:50.908Z,78
2022-09-27T19:40:51.205Z,78
2022-09-27T19:42:50.847Z,78
2022-09-27T19:44:50.663Z,78
2022-09-27T19:46:51.089Z,78
2022-09-27T19:48:50.992Z,78
2022-09-27T19:50:51.032Z,78
2022-09-27T19:52:50.912Z,78
2022-09-27T19:54:50.866Z,78
2022-09-27T19:56:51.038Z,78
2022-09-27T19:58:50.881Z,78
2022-09-27T20:00:50.691Z,78
2022-09-27T20:02:50.663Z,79
2022-09-27T20:04:50.991Z,79
2022-09-27T20:06:50.351Z,79
2022-09-27T20:08:50.188Z,79
2022-09-27T20:10:50.973Z,79
2022-09-27T20:12:50.681Z,79
2022-09-27T20:14:50.577Z,80
2022-09-27T20:16:50.780Z,80
2022-09-27T20:18:50.739Z,80
2022-09-27T20:20:50.677Z,80
2022-09-27T20:22:50.503Z,79
2022-09-27T20:24:50.586Z,79
2022-09-27T20:26:50.926Z,79
2022-09-27T20:28:50.753Z,79
2022-09-27T20:30:50.979Z,79
2022-09-27T20:32:50.886Z,79
2022-09-27T20:34:50.251Z,79
2022-09-27T20:36:50.366Z,79
2022-09-27T20:38:50.191Z,80
2022-09-27T20:40:50.623Z,80
2022-09-27T20:42:50.445Z,80
2022-09-27T20:44:55.095Z,79
2022-09-27T20:46:50.477Z,80
2022-09-27T20:48:50.242Z,80
2022-09-27T20:50:50.175Z,80
2022-09-27T20:52:50.112Z,80
2022-09-27T20:54:50.037Z,80
2022-09-27T20:56:50.169Z,80
2022-09-27T20:58:51.013Z,79
2022-09-27T21:00:51.034Z,79
2022-09-27T21:02:51.001Z,80
2022-09-27T21:04:50.272Z,80
2022-09-27T21:06:50.571Z,79
2022-09-27T21:08:50.283Z,79
2022-09-27T21:10:53.489Z,79
2022-09-27T21:12:50.366Z,79
2022-09-27T21:14:50.191Z,79
2022-09-27T21:16:50.282Z,79
2022-09-27T21:18:50.983Z,79
2022-09-27T21:20:50.932Z,79
2022-09-27T21:22:50.684Z,79
2022-09-27T21:24:50.625Z,78
2022-09-27T21:26:50.886Z,78
2022-09-27T21:28:50.604Z,78
2022-09-27T21:30:50.615Z,78
2022-09-27T21:32:50.322Z,79
2022-09-27T21:34:50.598Z,79
2022-09-27T21:36:50.648Z,79
2022-09-27T21:38:50.499Z,79
2022-09-27T21:40:50.797Z,79
2022-09-27T21:42:58.324Z,79
2022-09-27T21:44:50.301Z,79
2022-09-27T21:46:50.982Z,79
2022-09-27T21:48:50.938Z,79
2022-09-27T21:50:50.505Z,79
2022-09-27T21:52:50.330Z,79
2022-09-27T21:54:50.480Z,79
2022-09-27T21:56:50.573Z,79
2022-09-27T21:58:50.565Z,78
2022-09-27T22:00:50.789Z,78
2022-09-27T22:02:50.845Z,78
2022-09-27T22:04:50.089Z,78
2022-09-27T22:06:50.069Z,78
2022-09-27T22:08:50.036Z,78
2022-09-27T22:10:50.762Z,78
2022-09-27T22:12:50.610Z,78
2022-09-27T22:14:50.434Z,79
2022-09-27T22:16:50.731Z,79
2022-09-27T22:18:50.395Z,79
2022-09-27T22:20:50.267Z,79
2022-09-27T22:22:50.239Z,79
2022-09-27T22:24:50.931Z,79
2022-09-27T22:26:50.291Z,79
2022-09-27T22:28:50.357Z,79
2022-09-27T22:30:50.226Z,79
2022-09-27T22:32:50.163Z,79
2022-09-27T22:34:50.662Z,79
2022-09-27T22:36:50.881Z,79
2022-09-27T22:38:50.784Z,79
2022-09-27T22:40:51.390Z,79
2022-09-27T22:42:50.174Z,79
2022-09-27T22:44:50.970Z,79
2022-09-27T22:46:50.814Z,79
2022-09-27T22:48:50.565Z,79
2022-09-27T22:50:50.523Z,80
2022-09-27T22:52:50.281Z,80
2022-09-27T22:54:50.985Z,80
2022-09-27T22:56:50.188Z,80
2022-09-27T22:58:50.912Z,80
2022-09-27T23:00:51.231Z,80
2022-09-27T23:02:50.108Z,80
2022-09-27T23:04:50.578Z,80
2022-09-27T23:06:50.705Z,80
2022-09-27T23:08:50.456Z,80
2022-09-27T23:10:50.359Z,80
2022-09-27T23:12:50.116Z,80
2022-09-27T23:14:50.981Z,80
2022-09-27T23:16:50.303Z,81
2022-09-27T23:18:50.087Z,81
2022-09-27T23:20:50.932Z,81
2022-09-27T23:22:50.624Z,81
2022-09-27T23:24:50.513Z,81
2022-09-27T23:26:50.600Z,81
2022-09-27T23:28:50.379Z,81
2022-09-27T23:30:50.341Z,81
2022-09-27T23:32:50.191Z,81
2022-09-27T23:34:50.415Z,81
2022-09-27T23:36:50.592Z,80
2022-09-27T23:38:50.305Z,80
2022-09-27T23:40:50.414Z,80
2022-09-27T23:42:50.231Z,81
2022-09-27T23:44:50.151Z,81
2022-09-27T23:46:50.805Z,81
2022-09-27T23:48:50.561Z,81
2022-09-27T23:50:50.226Z,81
2022-09-27T23:52:50.056Z,81
2022-09-27T23:54:50.797Z,81
2022-09-27T23:56:50.890Z,81
2022-09-27T23:58:50.722Z,81
